sensor_id;sensor_type;location;lat;lon;timestamp;P1;durP1;ratioP1;P2;durP2;ratioP2
18651;SDS011;9455;54.302;10.124;2023-08-06T00:01:13;4.77;;;2.03;;
18651;SDS011;9455;54.302;10.124;2023-08-06T00:03:39;2.07;;;1.60;;
18651;SDS011;9455;54.302;10.124;2023-08-06T00:06:06;2.10;;;1.90;;
18651;SDS011;9455;54.302;10.124;2023-08-06T00:08:32;3.43;;;2.00;;
18651;SDS011;9455;54.302;10.124;2023-08-06T00:11:03;4.87;;;1.87;;
18651;SDS011;9455;54.302;10.124;2023-08-06T00:13:30;2.37;;;1.57;;
18651;SDS011;9455;54.302;10.124;2023-08-06T00:16:06;1.60;;;1.50;;
18651;SDS011;9455;54.302;10.124;2023-08-06T00:18:34;10.63;;;2.27;;
18651;SDS011;9455;54.302;10.124;2023-08-06T00:21:01;2.53;;;2.33;;
18651;SDS011;9455;54.302;10.124;2023-08-06T00:23:27;3.13;;;1.93;;
18651;SDS011;9455;54.302;10.124;2023-08-06T00:25:54;4.97;;;2.53;;
18651;SDS011;9455;54.302;10.124;2023-08-06T00:28:22;5.23;;;2.47;;
18651;SDS011;9455;54.302;10.124;2023-08-06T00:30:52;6.23;;;1.93;;
18651;SDS011;9455;54.302;10.124;2023-08-06T00:33:18;1.67;;;1.57;;
18651;SDS011;9455;54.302;10.124;2023-08-06T00:35:45;11.50;;;1.70;;
18651;SDS011;9455;54.302;10.124;2023-08-06T00:38:12;2.67;;;1.43;;
18651;SDS011;9455;54.302;10.124;2023-08-06T00:40:38;7.73;;;1.30;;
18651;SDS011;9455;54.302;10.124;2023-08-06T00:43:05;4.03;;;1.93;;
18651;SDS011;9455;54.302;10.124;2023-08-06T00:45:34;3.80;;;1.70;;
18651;SDS011;9455;54.302;10.124;2023-08-06T00:48:02;1.70;;;1.60;;
18651;SDS011;9455;54.302;10.124;2023-08-06T00:50:31;9.43;;;1.67;;
18651;SDS011;9455;54.302;10.124;2023-08-06T00:52:58;7.13;;;1.83;;
18651;SDS011;9455;54.302;10.124;2023-08-06T00:55:25;1.40;;;1.30;;
18651;SDS011;9455;54.302;10.124;2023-08-06T00:57:52;3.40;;;1.60;;
18651;SDS011;9455;54.302;10.124;2023-08-06T01:00:21;1.97;;;1.80;;
18651;SDS011;9455;54.302;10.124;2023-08-06T01:02:49;2.00;;;1.60;;
18651;SDS011;9455;54.302;10.124;2023-08-06T01:05:16;1.23;;;1.23;;
18651;SDS011;9455;54.302;10.124;2023-08-06T01:07:45;1.47;;;1.30;;
18651;SDS011;9455;54.302;10.124;2023-08-06T01:10:20;2.07;;;1.30;;
18651;SDS011;9455;54.302;10.124;2023-08-06T01:12:56;1.37;;;1.27;;
18651;SDS011;9455;54.302;10.124;2023-08-06T01:15:35;5.13;;;1.80;;
18651;SDS011;9455;54.302;10.124;2023-08-06T01:18:08;2.83;;;1.60;;
18651;SDS011;9455;54.302;10.124;2023-08-06T01:20:37;3.33;;;1.57;;
18651;SDS011;9455;54.302;10.124;2023-08-06T01:23:04;3.97;;;2.83;;
18651;SDS011;9455;54.302;10.124;2023-08-06T01:25:33;8.73;;;1.67;;
18651;SDS011;9455;54.302;10.124;2023-08-06T01:28:03;4.60;;;1.70;;
18651;SDS011;9455;54.302;10.124;2023-08-06T01:30:35;1.97;;;1.77;;
18651;SDS011;9455;54.302;10.124;2023-08-06T01:33:06;2.10;;;1.67;;
18651;SDS011;9455;54.302;10.124;2023-08-06T01:35:37;1.30;;;1.30;;
18651;SDS011;9455;54.302;10.124;2023-08-06T01:38:04;5.23;;;1.50;;
18651;SDS011;9455;54.302;10.124;2023-08-06T01:40:31;8.13;;;1.50;;
18651;SDS011;9455;54.302;10.124;2023-08-06T01:42:58;4.27;;;1.70;;
18651;SDS011;9455;54.302;10.124;2023-08-06T01:45:24;5.23;;;1.47;;
18651;SDS011;9455;54.302;10.124;2023-08-06T01:47:51;1.73;;;1.50;;
18651;SDS011;9455;54.302;10.124;2023-08-06T01:50:17;4.10;;;1.50;;
18651;SDS011;9455;54.302;10.124;2023-08-06T01:52:45;2.00;;;1.90;;
18651;SDS011;9455;54.302;10.124;2023-08-06T01:55:12;1.63;;;1.53;;
18651;SDS011;9455;54.302;10.124;2023-08-06T01:57:39;4.10;;;1.63;;
18651;SDS011;9455;54.302;10.124;2023-08-06T02:00:06;4.50;;;2.00;;
18651;SDS011;9455;54.302;10.124;2023-08-06T02:02:33;5.60;;;1.80;;
18651;SDS011;9455;54.302;10.124;2023-08-06T02:05:00;6.40;;;2.10;;
18651;SDS011;9455;54.302;10.124;2023-08-06T02:07:26;2.93;;;1.40;;
18651;SDS011;9455;54.302;10.124;2023-08-06T02:09:54;3.70;;;1.70;;
18651;SDS011;9455;54.302;10.124;2023-08-06T02:12:21;7.23;;;1.70;;
18651;SDS011;9455;54.302;10.124;2023-08-06T02:14:47;2.17;;;1.97;;
18651;SDS011;9455;54.302;10.124;2023-08-06T02:17:14;1.80;;;1.70;;
18651;SDS011;9455;54.302;10.124;2023-08-06T02:19:40;7.33;;;1.70;;
18651;SDS011;9455;54.302;10.124;2023-08-06T02:22:08;2.03;;;1.47;;
18651;SDS011;9455;54.302;10.124;2023-08-06T02:24:34;1.90;;;1.80;;
18651;SDS011;9455;54.302;10.124;2023-08-06T02:27:03;2.87;;;1.73;;
18651;SDS011;9455;54.302;10.124;2023-08-06T02:29:29;1.77;;;1.63;;
18651;SDS011;9455;54.302;10.124;2023-08-06T02:31:56;1.40;;;1.40;;
18651;SDS011;9455;54.302;10.124;2023-08-06T02:34:23;2.57;;;2.27;;
18651;SDS011;9455;54.302;10.124;2023-08-06T02:36:49;5.63;;;2.27;;
18651;SDS011;9455;54.302;10.124;2023-08-06T02:39:16;1.80;;;1.70;;
18651;SDS011;9455;54.302;10.124;2023-08-06T02:41:42;1.70;;;1.60;;
18651;SDS011;9455;54.302;10.124;2023-08-06T02:44:10;2.63;;;2.17;;
18651;SDS011;9455;54.302;10.124;2023-08-06T02:46:37;2.23;;;2.13;;
18651;SDS011;9455;54.302;10.124;2023-08-06T02:49:03;2.63;;;2.17;;
18651;SDS011;9455;54.302;10.124;2023-08-06T02:51:30;2.00;;;1.87;;
18651;SDS011;9455;54.302;10.124;2023-08-06T02:53:56;6.30;;;1.83;;
18651;SDS011;9455;54.302;10.124;2023-08-06T02:56:23;3.50;;;1.80;;
18651;SDS011;9455;54.302;10.124;2023-08-06T02:58:50;6.13;;;2.63;;
18651;SDS011;9455;54.302;10.124;2023-08-06T03:01:18;6.17;;;2.40;;
18651;SDS011;9455;54.302;10.124;2023-08-06T03:03:45;4.10;;;2.17;;
18651;SDS011;9455;54.302;10.124;2023-08-06T03:06:11;5.97;;;2.10;;
18651;SDS011;9455;54.302;10.124;2023-08-06T03:08:38;1.93;;;1.70;;
18651;SDS011;9455;54.302;10.124;2023-08-06T03:11:04;2.20;;;1.70;;
18651;SDS011;9455;54.302;10.124;2023-08-06T03:13:31;2.67;;;2.30;;
18651;SDS011;9455;54.302;10.124;2023-08-06T03:15:58;3.67;;;2.07;;
18651;SDS011;9455;54.302;10.124;2023-08-06T03:18:27;13.53;;;2.03;;
18651;SDS011;9455;54.302;10.124;2023-08-06T03:20:54;8.47;;;1.90;;
18651;SDS011;9455;54.302;10.124;2023-08-06T03:23:22;3.00;;;1.80;;
18651;SDS011;9455;54.302;10.124;2023-08-06T03:25:48;6.93;;;2.30;;
18651;SDS011;9455;54.302;10.124;2023-08-06T03:28:15;3.50;;;2.10;;
18651;SDS011;9455;54.302;10.124;2023-08-06T03:30:41;6.03;;;2.20;;
18651;SDS011;9455;54.302;10.124;2023-08-06T03:33:08;2.47;;;1.80;;
18651;SDS011;9455;54.302;10.124;2023-08-06T03:35:36;5.43;;;2.20;;
18651;SDS011;9455;54.302;10.124;2023-08-06T03:38:02;3.27;;;1.90;;
18651;SDS011;9455;54.302;10.124;2023-08-06T03:40:29;3.63;;;2.03;;
18651;SDS011;9455;54.302;10.124;2023-08-06T03:42:55;5.73;;;1.67;;
18651;SDS011;9455;54.302;10.124;2023-08-06T03:45:22;3.17;;;2.10;;
18651;SDS011;9455;54.302;10.124;2023-08-06T03:47:48;1.90;;;1.80;;
18651;SDS011;9455;54.302;10.124;2023-08-06T03:50:15;2.03;;;1.83;;
18651;SDS011;9455;54.302;10.124;2023-08-06T03:52:43;6.70;;;2.10;;
18651;SDS011;9455;54.302;10.124;2023-08-06T03:55:10;12.93;;;2.70;;
18651;SDS011;9455;54.302;10.124;2023-08-06T03:57:36;3.53;;;2.17;;
18651;SDS011;9455;54.302;10.124;2023-08-06T04:00:03;10.40;;;2.00;;
18651;SDS011;9455;54.302;10.124;2023-08-06T04:02:30;2.10;;;2.00;;
18651;SDS011;9455;54.302;10.124;2023-08-06T04:04:57;3.27;;;2.20;;
18651;SDS011;9455;54.302;10.124;2023-08-06T04:07:24;3.90;;;2.30;;
18651;SDS011;9455;54.302;10.124;2023-08-06T04:09:53;4.17;;;2.97;;
18651;SDS011;9455;54.302;10.124;2023-08-06T04:12:20;3.63;;;2.23;;
18651;SDS011;9455;54.302;10.124;2023-08-06T04:14:47;6.57;;;2.50;;
18651;SDS011;9455;54.302;10.124;2023-08-06T04:17:13;7.83;;;3.17;;
18651;SDS011;9455;54.302;10.124;2023-08-06T04:19:40;2.90;;;2.60;;
18651;SDS011;9455;54.302;10.124;2023-08-06T04:22:06;2.17;;;1.90;;
18651;SDS011;9455;54.302;10.124;2023-08-06T04:24:33;5.50;;;2.33;;
18651;SDS011;9455;54.302;10.124;2023-08-06T04:27:01;7.97;;;1.77;;
18651;SDS011;9455;54.302;10.124;2023-08-06T04:29:27;4.40;;;2.27;;
18651;SDS011;9455;54.302;10.124;2023-08-06T04:31:54;2.97;;;2.20;;
18651;SDS011;9455;54.302;10.124;2023-08-06T04:34:21;1.80;;;1.70;;
18651;SDS011;9455;54.302;10.124;2023-08-06T04:36:48;4.87;;;2.33;;
18651;SDS011;9455;54.302;10.124;2023-08-06T04:39:14;2.63;;;1.67;;
18651;SDS011;9455;54.302;10.124;2023-08-06T04:41:41;4.13;;;2.50;;
18651;SDS011;9455;54.302;10.124;2023-08-06T04:44:09;3.67;;;1.97;;
18651;SDS011;9455;54.302;10.124;2023-08-06T04:46:36;4.03;;;2.30;;
18651;SDS011;9455;54.302;10.124;2023-08-06T04:49:02;5.40;;;2.37;;
18651;SDS011;9455;54.302;10.124;2023-08-06T04:51:29;4.80;;;2.27;;
18651;SDS011;9455;54.302;10.124;2023-08-06T04:53:56;1.70;;;1.60;;
18651;SDS011;9455;54.302;10.124;2023-08-06T04:56:23;1.87;;;1.77;;
18651;SDS011;9455;54.302;10.124;2023-08-06T04:58:50;2.90;;;2.40;;
18651;SDS011;9455;54.302;10.124;2023-08-06T05:01:18;10.97;;;2.63;;
18651;SDS011;9455;54.302;10.124;2023-08-06T05:03:44;6.17;;;2.50;;
18651;SDS011;9455;54.302;10.124;2023-08-06T05:06:11;4.30;;;2.63;;
18651;SDS011;9455;54.302;10.124;2023-08-06T05:08:37;5.00;;;2.20;;
18651;SDS011;9455;54.302;10.124;2023-08-06T05:11:04;3.10;;;1.70;;
18651;SDS011;9455;54.302;10.124;2023-08-06T05:13:30;5.33;;;2.63;;
18651;SDS011;9455;54.302;10.124;2023-08-06T05:15:57;4.73;;;2.20;;
18651;SDS011;9455;54.302;10.124;2023-08-06T05:18:25;2.47;;;2.37;;
18651;SDS011;9455;54.302;10.124;2023-08-06T05:20:52;6.87;;;1.97;;
18651;SDS011;9455;54.302;10.124;2023-08-06T05:23:18;2.67;;;1.93;;
18651;SDS011;9455;54.302;10.124;2023-08-06T05:25:45;4.30;;;2.53;;
18651;SDS011;9455;54.302;10.124;2023-08-06T05:28:11;2.60;;;2.20;;
18651;SDS011;9455;54.302;10.124;2023-08-06T05:30:39;2.60;;;2.30;;
18651;SDS011;9455;54.302;10.124;2023-08-06T05:33:05;1.83;;;1.70;;
18651;SDS011;9455;54.302;10.124;2023-08-06T05:35:33;5.67;;;2.40;;
18651;SDS011;9455;54.302;10.124;2023-08-06T05:38:00;5.13;;;2.43;;
18651;SDS011;9455;54.302;10.124;2023-08-06T05:40:26;3.97;;;2.03;;
18651;SDS011;9455;54.302;10.124;2023-08-06T05:42:53;3.13;;;2.83;;
18651;SDS011;9455;54.302;10.124;2023-08-06T05:45:20;2.87;;;2.40;;
18651;SDS011;9455;54.302;10.124;2023-08-06T05:47:47;2.10;;;2.00;;
18651;SDS011;9455;54.302;10.124;2023-08-06T05:50:14;3.70;;;3.13;;
18651;SDS011;9455;54.302;10.124;2023-08-06T05:52:42;5.30;;;2.60;;
18651;SDS011;9455;54.302;10.124;2023-08-06T05:55:08;6.10;;;2.47;;
18651;SDS011;9455;54.302;10.124;2023-08-06T05:57:35;4.80;;;1.93;;
18651;SDS011;9455;54.302;10.124;2023-08-06T06:00:02;2.63;;;2.10;;
18651;SDS011;9455;54.302;10.124;2023-08-06T06:02:31;3.07;;;2.70;;
18651;SDS011;9455;54.302;10.124;2023-08-06T06:04:57;7.10;;;3.20;;
18651;SDS011;9455;54.302;10.124;2023-08-06T06:07:24;11.67;;;3.47;;
18651;SDS011;9455;54.302;10.124;2023-08-06T06:09:52;14.07;;;4.73;;
18651;SDS011;9455;54.302;10.124;2023-08-06T06:12:18;8.37;;;4.53;;
18651;SDS011;9455;54.302;10.124;2023-08-06T06:14:47;4.00;;;2.90;;
18651;SDS011;9455;54.302;10.124;2023-08-06T06:17:14;10.87;;;2.90;;
18651;SDS011;9455;54.302;10.124;2023-08-06T06:19:40;2.60;;;2.40;;
18651;SDS011;9455;54.302;10.124;2023-08-06T06:22:07;5.60;;;2.10;;
18651;SDS011;9455;54.302;10.124;2023-08-06T06:24:34;2.60;;;2.33;;
18651;SDS011;9455;54.302;10.124;2023-08-06T06:27:04;5.50;;;1.80;;
18651;SDS011;9455;54.302;10.124;2023-08-06T06:29:33;3.10;;;1.93;;
18651;SDS011;9455;54.302;10.124;2023-08-06T06:32:00;2.70;;;2.50;;
18651;SDS011;9455;54.302;10.124;2023-08-06T06:34:26;3.73;;;1.87;;
18651;SDS011;9455;54.302;10.124;2023-08-06T06:36:53;4.60;;;2.10;;
18651;SDS011;9455;54.302;10.124;2023-08-06T06:39:20;2.33;;;2.13;;
18651;SDS011;9455;54.302;10.124;2023-08-06T06:41:47;3.93;;;3.57;;
18651;SDS011;9455;54.302;10.124;2023-08-06T06:44:15;7.60;;;3.87;;
18651;SDS011;9455;54.302;10.124;2023-08-06T06:46:41;8.80;;;3.80;;
18651;SDS011;9455;54.302;10.124;2023-08-06T06:49:08;7.07;;;4.37;;
18651;SDS011;9455;54.302;10.124;2023-08-06T06:51:35;4.80;;;3.67;;
18651;SDS011;9455;54.302;10.124;2023-08-06T06:54:01;6.40;;;2.60;;
18651;SDS011;9455;54.302;10.124;2023-08-06T06:56:28;6.50;;;2.13;;
18651;SDS011;9455;54.302;10.124;2023-08-06T06:58:54;5.93;;;1.90;;
18651;SDS011;9455;54.302;10.124;2023-08-06T07:01:22;2.60;;;1.93;;
18651;SDS011;9455;54.302;10.124;2023-08-06T07:03:49;3.13;;;2.77;;
18651;SDS011;9455;54.302;10.124;2023-08-06T07:06:16;2.77;;;2.30;;
18651;SDS011;9455;54.302;10.124;2023-08-06T07:08:43;3.60;;;2.40;;
18651;SDS011;9455;54.302;10.124;2023-08-06T07:11:10;5.43;;;2.40;;
18651;SDS011;9455;54.302;10.124;2023-08-06T07:13:36;3.80;;;2.03;;
18651;SDS011;9455;54.302;10.124;2023-08-06T07:16:03;3.53;;;2.07;;
18651;SDS011;9455;54.302;10.124;2023-08-06T07:18:31;5.50;;;2.30;;
18651;SDS011;9455;54.302;10.124;2023-08-06T07:20:57;4.13;;;1.97;;
18651;SDS011;9455;54.302;10.124;2023-08-06T07:23:25;3.10;;;1.87;;
18651;SDS011;9455;54.302;10.124;2023-08-06T07:25:52;8.50;;;2.80;;
18651;SDS011;9455;54.302;10.124;2023-08-06T07:28:19;5.80;;;2.27;;
18651;SDS011;9455;54.302;10.124;2023-08-06T07:30:45;4.47;;;2.27;;
18651;SDS011;9455;54.302;10.124;2023-08-06T07:33:12;3.13;;;2.40;;
18651;SDS011;9455;54.302;10.124;2023-08-06T07:35:40;6.87;;;2.70;;
18651;SDS011;9455;54.302;10.124;2023-08-06T07:38:08;11.37;;;2.53;;
18651;SDS011;9455;54.302;10.124;2023-08-06T07:40:35;2.73;;;2.00;;
18651;SDS011;9455;54.302;10.124;2023-08-06T07:43:03;5.43;;;2.23;;
18651;SDS011;9455;54.302;10.124;2023-08-06T07:45:32;1.60;;;1.50;;
18651;SDS011;9455;54.302;10.124;2023-08-06T07:47:59;6.33;;;1.70;;
18651;SDS011;9455;54.302;10.124;2023-08-06T07:50:25;1.60;;;1.37;;
18651;SDS011;9455;54.302;10.124;2023-08-06T07:52:53;2.20;;;1.40;;
18651;SDS011;9455;54.302;10.124;2023-08-06T07:55:20;1.90;;;1.40;;
18651;SDS011;9455;54.302;10.124;2023-08-06T07:57:46;3.50;;;1.33;;
18651;SDS011;9455;54.302;10.124;2023-08-06T08:00:13;1.33;;;1.27;;
18651;SDS011;9455;54.302;10.124;2023-08-06T08:02:40;4.53;;;1.40;;
18651;SDS011;9455;54.302;10.124;2023-08-06T08:05:06;1.60;;;1.50;;
18651;SDS011;9455;54.302;10.124;2023-08-06T08:07:33;1.47;;;1.13;;
18651;SDS011;9455;54.302;10.124;2023-08-06T08:10:01;1.23;;;1.13;;
18651;SDS011;9455;54.302;10.124;2023-08-06T08:12:28;4.47;;;1.27;;
18651;SDS011;9455;54.302;10.124;2023-08-06T08:14:56;1.00;;;1.00;;
18651;SDS011;9455;54.302;10.124;2023-08-06T08:17:22;2.43;;;1.33;;
18651;SDS011;9455;54.302;10.124;2023-08-06T08:19:49;1.30;;;0.87;;
18651;SDS011;9455;54.302;10.124;2023-08-06T08:22:15;2.20;;;1.17;;
18651;SDS011;9455;54.302;10.124;2023-08-06T08:24:42;3.37;;;1.20;;
18651;SDS011;9455;54.302;10.124;2023-08-06T08:27:10;2.80;;;1.50;;
18651;SDS011;9455;54.302;10.124;2023-08-06T08:29:36;1.40;;;1.23;;
18651;SDS011;9455;54.302;10.124;2023-08-06T08:32:03;4.50;;;1.10;;
18651;SDS011;9455;54.302;10.124;2023-08-06T08:34:31;5.67;;;1.47;;
18651;SDS011;9455;54.302;10.124;2023-08-06T08:36:57;1.27;;;1.17;;
18651;SDS011;9455;54.302;10.124;2023-08-06T08:39:24;1.83;;;1.50;;
18651;SDS011;9455;54.302;10.124;2023-08-06T08:41:50;1.13;;;1.10;;
18651;SDS011;9455;54.302;10.124;2023-08-06T08:44:19;1.00;;;1.00;;
18651;SDS011;9455;54.302;10.124;2023-08-06T08:46:46;2.30;;;1.17;;
18651;SDS011;9455;54.302;10.124;2023-08-06T08:49:14;0.77;;;0.73;;
18651;SDS011;9455;54.302;10.124;2023-08-06T08:51:41;1.60;;;0.90;;
18651;SDS011;9455;54.302;10.124;2023-08-06T08:54:09;3.50;;;1.17;;
18651;SDS011;9455;54.302;10.124;2023-08-06T08:56:39;4.93;;;1.00;;
18651;SDS011;9455;54.302;10.124;2023-08-06T08:59:06;6.27;;;1.10;;
18651;SDS011;9455;54.302;10.124;2023-08-06T09:01:33;1.73;;;1.10;;
18651;SDS011;9455;54.302;10.124;2023-08-06T09:04:01;1.23;;;0.80;;
18651;SDS011;9455;54.302;10.124;2023-08-06T09:06:29;0.97;;;0.97;;
18651;SDS011;9455;54.302;10.124;2023-08-06T09:09:00;2.00;;;1.10;;
18651;SDS011;9455;54.302;10.124;2023-08-06T09:11:32;1.00;;;1.00;;
18651;SDS011;9455;54.302;10.124;2023-08-06T09:14:06;1.03;;;1.03;;
18651;SDS011;9455;54.302;10.124;2023-08-06T09:16:35;3.60;;;1.33;;
18651;SDS011;9455;54.302;10.124;2023-08-06T09:19:06;4.53;;;1.53;;
18651;SDS011;9455;54.302;10.124;2023-08-06T09:21:35;1.80;;;1.20;;
18651;SDS011;9455;54.302;10.124;2023-08-06T09:24:06;3.47;;;1.10;;
18651;SDS011;9455;54.302;10.124;2023-08-06T09:26:33;0.90;;;0.90;;
18651;SDS011;9455;54.302;10.124;2023-08-06T09:29:00;1.00;;;1.00;;
18651;SDS011;9455;54.302;10.124;2023-08-06T09:31:32;1.80;;;0.97;;
18651;SDS011;9455;54.302;10.124;2023-08-06T09:34:00;2.80;;;0.73;;
18651;SDS011;9455;54.302;10.124;2023-08-06T09:36:27;5.60;;;1.00;;
18651;SDS011;9455;54.302;10.124;2023-08-06T09:38:53;4.33;;;0.73;;
18651;SDS011;9455;54.302;10.124;2023-08-06T09:41:25;2.10;;;1.83;;
18651;SDS011;9455;54.302;10.124;2023-08-06T09:43:53;3.90;;;1.50;;
18651;SDS011;9455;54.302;10.124;2023-08-06T09:46:20;3.20;;;1.23;;
18651;SDS011;9455;54.302;10.124;2023-08-06T09:48:47;1.53;;;0.93;;
18651;SDS011;9455;54.302;10.124;2023-08-06T09:51:16;1.60;;;1.17;;
18651;SDS011;9455;54.302;10.124;2023-08-06T09:53:43;3.20;;;1.40;;
18651;SDS011;9455;54.302;10.124;2023-08-06T09:56:10;3.80;;;1.70;;
18651;SDS011;9455;54.302;10.124;2023-08-06T09:58:39;6.03;;;1.20;;
18651;SDS011;9455;54.302;10.124;2023-08-06T10:01:06;4.23;;;1.00;;
18651;SDS011;9455;54.302;10.124;2023-08-06T10:03:33;1.73;;;0.90;;
18651;SDS011;9455;54.302;10.124;2023-08-06T10:06:00;4.83;;;1.00;;
18651;SDS011;9455;54.302;10.124;2023-08-06T10:08:32;1.80;;;1.10;;
18651;SDS011;9455;54.302;10.124;2023-08-06T10:10:59;1.13;;;1.03;;
18651;SDS011;9455;54.302;10.124;2023-08-06T10:13:29;0.70;;;0.70;;
18651;SDS011;9455;54.302;10.124;2023-08-06T10:15:56;1.03;;;1.03;;
18651;SDS011;9455;54.302;10.124;2023-08-06T10:18:23;2.43;;;0.97;;
18651;SDS011;9455;54.302;10.124;2023-08-06T10:20:50;1.23;;;1.23;;
18651;SDS011;9455;54.302;10.124;2023-08-06T10:23:16;2.83;;;1.50;;
18651;SDS011;9455;54.302;10.124;2023-08-06T10:25:47;0.90;;;0.90;;
18651;SDS011;9455;54.302;10.124;2023-08-06T10:28:20;7.23;;;1.20;;
18651;SDS011;9455;54.302;10.124;2023-08-06T10:30:47;1.53;;;1.43;;
18651;SDS011;9455;54.302;10.124;2023-08-06T10:33:15;2.77;;;1.23;;
18651;SDS011;9455;54.302;10.124;2023-08-06T10:35:42;3.97;;;1.63;;
18651;SDS011;9455;54.302;10.124;2023-08-06T10:38:14;2.97;;;1.10;;
18651;SDS011;9455;54.302;10.124;2023-08-06T10:40:47;1.00;;;1.00;;
18651;SDS011;9455;54.302;10.124;2023-08-06T10:43:26;2.17;;;1.20;;
18651;SDS011;9455;54.302;10.124;2023-08-06T10:45:54;0.97;;;0.97;;
18651;SDS011;9455;54.302;10.124;2023-08-06T10:48:30;1.03;;;0.93;;
18651;SDS011;9455;54.302;10.124;2023-08-06T10:51:00;4.27;;;1.10;;
18651;SDS011;9455;54.302;10.124;2023-08-06T10:53:27;1.43;;;1.33;;
18651;SDS011;9455;54.302;10.124;2023-08-06T10:55:55;4.90;;;1.00;;
18651;SDS011;9455;54.302;10.124;2023-08-06T10:58:22;2.20;;;1.47;;
18651;SDS011;9455;54.302;10.124;2023-08-06T11:00:49;3.83;;;1.03;;
18651;SDS011;9455;54.302;10.124;2023-08-06T11:03:15;1.97;;;1.10;;
18651;SDS011;9455;54.302;10.124;2023-08-06T11:05:48;5.17;;;1.40;;
18651;SDS011;9455;54.302;10.124;2023-08-06T11:08:22;2.87;;;1.20;;
18651;SDS011;9455;54.302;10.124;2023-08-06T11:10:49;6.03;;;1.10;;
18651;SDS011;9455;54.302;10.124;2023-08-06T11:13:17;5.97;;;1.17;;
18651;SDS011;9455;54.302;10.124;2023-08-06T11:15:44;1.10;;;1.10;;
18651;SDS011;9455;54.302;10.124;2023-08-06T11:18:11;1.17;;;0.77;;
18651;SDS011;9455;54.302;10.124;2023-08-06T11:20:38;1.20;;;1.20;;
18651;SDS011;9455;54.302;10.124;2023-08-06T11:23:05;1.27;;;1.00;;
18651;SDS011;9455;54.302;10.124;2023-08-06T11:25:35;2.03;;;0.93;;
18651;SDS011;9455;54.302;10.124;2023-08-06T11:28:02;3.13;;;0.90;;
18651;SDS011;9455;54.302;10.124;2023-08-06T11:30:30;3.27;;;1.20;;
18651;SDS011;9455;54.302;10.124;2023-08-06T11:32:57;9.37;;;1.40;;
18651;SDS011;9455;54.302;10.124;2023-08-06T11:35:23;0.80;;;0.80;;
18651;SDS011;9455;54.302;10.124;2023-08-06T11:37:50;5.63;;;1.30;;
18651;SDS011;9455;54.302;10.124;2023-08-06T11:40:17;1.43;;;0.83;;
18651;SDS011;9455;54.302;10.124;2023-08-06T11:42:44;3.53;;;1.33;;
18651;SDS011;9455;54.302;10.124;2023-08-06T11:45:12;5.70;;;1.90;;
18651;SDS011;9455;54.302;10.124;2023-08-06T11:47:40;0.90;;;0.90;;
18651;SDS011;9455;54.302;10.124;2023-08-06T11:50:07;1.37;;;1.27;;
18651;SDS011;9455;54.302;10.124;2023-08-06T11:52:34;2.00;;;1.27;;
18651;SDS011;9455;54.302;10.124;2023-08-06T11:55:07;2.63;;;1.33;;
18651;SDS011;9455;54.302;10.124;2023-08-06T11:57:36;1.70;;;1.60;;
18651;SDS011;9455;54.302;10.124;2023-08-06T12:00:05;1.60;;;1.50;;
18651;SDS011;9455;54.302;10.124;2023-08-06T12:02:33;3.97;;;1.30;;
18651;SDS011;9455;54.302;10.124;2023-08-06T12:05:04;1.23;;;1.13;;
18651;SDS011;9455;54.302;10.124;2023-08-06T12:07:36;1.03;;;0.93;;
18651;SDS011;9455;54.302;10.124;2023-08-06T12:10:05;4.77;;;2.10;;
18651;SDS011;9455;54.302;10.124;2023-08-06T12:12:32;4.93;;;1.23;;
18651;SDS011;9455;54.302;10.124;2023-08-06T12:14:59;2.13;;;1.20;;
18651;SDS011;9455;54.302;10.124;2023-08-06T12:17:26;1.03;;;1.03;;
18651;SDS011;9455;54.302;10.124;2023-08-06T12:19:53;11.17;;;1.40;;
18651;SDS011;9455;54.302;10.124;2023-08-06T12:22:21;3.20;;;1.37;;
18651;SDS011;9455;54.302;10.124;2023-08-06T12:24:47;1.20;;;1.20;;
18651;SDS011;9455;54.302;10.124;2023-08-06T12:27:14;2.60;;;1.50;;
18651;SDS011;9455;54.302;10.124;2023-08-06T12:29:41;1.70;;;1.27;;
18651;SDS011;9455;54.302;10.124;2023-08-06T12:32:08;3.10;;;1.43;;
18651;SDS011;9455;54.302;10.124;2023-08-06T12:34:35;1.20;;;1.20;;
18651;SDS011;9455;54.302;10.124;2023-08-06T12:37:02;1.20;;;1.10;;
18651;SDS011;9455;54.302;10.124;2023-08-06T12:39:30;1.07;;;1.07;;
18651;SDS011;9455;54.302;10.124;2023-08-06T12:41:57;1.20;;;1.10;;
18651;SDS011;9455;54.302;10.124;2023-08-06T12:44:24;1.80;;;1.37;;
18651;SDS011;9455;54.302;10.124;2023-08-06T12:46:51;1.93;;;1.20;;
18651;SDS011;9455;54.302;10.124;2023-08-06T12:49:17;2.10;;;1.27;;
18651;SDS011;9455;54.302;10.124;2023-08-06T12:51:46;1.17;;;1.10;;
18651;SDS011;9455;54.302;10.124;2023-08-06T12:54:12;3.53;;;1.13;;
18651;SDS011;9455;54.302;10.124;2023-08-06T12:56:40;5.93;;;1.10;;
18651;SDS011;9455;54.302;10.124;2023-08-06T12:59:07;1.97;;;1.07;;
18651;SDS011;9455;54.302;10.124;2023-08-06T13:01:33;1.10;;;1.00;;
18651;SDS011;9455;54.302;10.124;2023-08-06T13:04:00;1.30;;;1.20;;
18651;SDS011;9455;54.302;10.124;2023-08-06T13:06:27;1.67;;;1.13;;
18651;SDS011;9455;54.302;10.124;2023-08-06T13:08:53;1.10;;;1.10;;
18651;SDS011;9455;54.302;10.124;2023-08-06T13:11:20;1.23;;;0.90;;
18651;SDS011;9455;54.302;10.124;2023-08-06T13:13:48;4.30;;;1.20;;
18651;SDS011;9455;54.302;10.124;2023-08-06T13:16:14;4.00;;;1.53;;
18651;SDS011;9455;54.302;10.124;2023-08-06T13:18:41;1.60;;;1.30;;
18651;SDS011;9455;54.302;10.124;2023-08-06T13:21:08;2.87;;;1.30;;
18651;SDS011;9455;54.302;10.124;2023-08-06T13:23:34;5.87;;;1.57;;
18651;SDS011;9455;54.302;10.124;2023-08-06T13:26:01;0.87;;;0.87;;
18651;SDS011;9455;54.302;10.124;2023-08-06T13:28:27;2.23;;;1.20;;
18651;SDS011;9455;54.302;10.124;2023-08-06T13:30:55;1.07;;;1.00;;
18651;SDS011;9455;54.302;10.124;2023-08-06T13:33:22;5.50;;;1.47;;
18651;SDS011;9455;54.302;10.124;2023-08-06T13:35:48;1.10;;;1.00;;
18651;SDS011;9455;54.302;10.124;2023-08-06T13:38:16;4.67;;;1.20;;
18651;SDS011;9455;54.302;10.124;2023-08-06T13:40:42;1.23;;;1.23;;
18651;SDS011;9455;54.302;10.124;2023-08-06T13:43:09;1.43;;;1.07;;
18651;SDS011;9455;54.302;10.124;2023-08-06T13:45:36;2.77;;;1.17;;
18651;SDS011;9455;54.302;10.124;2023-08-06T13:48:04;2.17;;;1.10;;
18651;SDS011;9455;54.302;10.124;2023-08-06T13:50:31;1.90;;;1.37;;
18651;SDS011;9455;54.302;10.124;2023-08-06T13:52:58;1.53;;;1.43;;
18651;SDS011;9455;54.302;10.124;2023-08-06T13:55:24;3.93;;;1.30;;
18651;SDS011;9455;54.302;10.124;2023-08-06T13:57:51;1.67;;;1.30;;
18651;SDS011;9455;54.302;10.124;2023-08-06T14:00:18;1.80;;;1.33;;
18651;SDS011;9455;54.302;10.124;2023-08-06T14:02:45;2.70;;;1.27;;
18651;SDS011;9455;54.302;10.124;2023-08-06T14:05:13;2.40;;;1.27;;
18651;SDS011;9455;54.302;10.124;2023-08-06T14:07:39;2.67;;;1.07;;
18651;SDS011;9455;54.302;10.124;2023-08-06T14:10:06;3.27;;;1.60;;
18651;SDS011;9455;54.302;10.124;2023-08-06T14:12:34;2.00;;;1.00;;
18651;SDS011;9455;54.302;10.124;2023-08-06T14:15:01;1.03;;;1.00;;
18651;SDS011;9455;54.302;10.124;2023-08-06T14:17:28;1.10;;;1.10;;
18651;SDS011;9455;54.302;10.124;2023-08-06T14:19:54;5.23;;;1.23;;
18651;SDS011;9455;54.302;10.124;2023-08-06T14:22:22;1.40;;;1.30;;
18651;SDS011;9455;54.302;10.124;2023-08-06T14:24:49;5.37;;;1.30;;
18651;SDS011;9455;54.302;10.124;2023-08-06T14:27:15;1.30;;;1.20;;
18651;SDS011;9455;54.302;10.124;2023-08-06T14:29:42;2.53;;;1.10;;
18651;SDS011;9455;54.302;10.124;2023-08-06T14:32:09;6.73;;;1.27;;
18651;SDS011;9455;54.302;10.124;2023-08-06T14:34:35;1.70;;;1.00;;
18651;SDS011;9455;54.302;10.124;2023-08-06T14:37:02;1.73;;;1.40;;
18651;SDS011;9455;54.302;10.124;2023-08-06T14:39:30;1.50;;;1.40;;
18651;SDS011;9455;54.302;10.124;2023-08-06T14:41:56;1.63;;;1.27;;
18651;SDS011;9455;54.302;10.124;2023-08-06T14:44:23;1.57;;;1.30;;
18651;SDS011;9455;54.302;10.124;2023-08-06T14:46:49;5.90;;;1.30;;
18651;SDS011;9455;54.302;10.124;2023-08-06T14:49:16;2.03;;;1.40;;